Flight Track Log - Related Links

Times and Time Zones

All times are in EDT time to prevent confusion due to time zone crossing. See the ASQ4633 flight status page for this flight to view local times or setup timezone preferences in your user account.

Time Position Orientation Groundspeed Altitude Reporting Facility
EDT Latitude Longitude Course Direction KTS MPH feet Rate Location/Type
Sun 04:11:39 PM 44.4792 -73.2606 194° South 216 249 5,000  Level Boston Center
Sun 04:12:39 PM 44.4125 -73.2828 193° South 239 275 7,000 2,250 Climbing Boston Center
Sun 04:13:00 PM 44.1787 -73.2553 190° South  Level FlightAware Approximate
Sun 04:13:39 PM 44.3372 -73.3050 192° South 260 299 9,500  Level Boston Center
Sun 04:14:00 PM 44.1051 -73.2737 190° South  Level FlightAware Approximate
Sun 04:14:39 PM 44.2578 -73.3269 191° South 284 327 11,100  Level Boston Center
Sun 04:15:00 PM 44.0323 -73.2971 196° South  Level FlightAware Approximate
Sun 04:15:39 PM 44.1639 -73.3517 191° South 323 372 11,700  Level Boston Center
Sun 04:16:00 PM 43.9604 -73.3259 196° South  Level FlightAware Approximate
Sun 04:16:39 PM 44.0511 -73.3847 192° South 367 422 13,400  Level Boston Center
Sun 04:17:00 PM 43.8883 -73.3539 194° South  Level FlightAware Approximate
Sun 04:17:39 PM 43.9531 -73.4119 191° South 377 434 14,900  Level Boston Center
Sun 04:18:39 PM 43.8506 -73.4392 191° South 377 434 16,400 1,450 Climbing Boston Center
Sun 04:19:39 PM 43.7483 -73.4661 191° South 372 428 17,800 1,050 Climbing Boston Center
Sun 04:20:39 PM 43.6439 -73.4931 191° South 379 436 18,500 1,000 Climbing Boston Center
Sun 04:21:39 PM 43.5414 -73.5200 191° South 379 436 19,800 750 Climbing Boston Center
Sun 04:22:39 PM 43.4350 -73.5494 191° South 384 442 20,000 100 Climbing Boston Center
Sun 04:23:39 PM 43.3200 -73.5786 190° South 404 465 20,000  Level Boston Center
Sun 04:24:39 PM 43.2072 -73.6108 192° South 410 472 20,000 -350 Level Boston Center
Sun 04:25:39 PM 43.1192 -73.6461 196° South 410 472 19,300 -1,050 Descending Boston Center
Sun 04:26:39 PM 42.9936 -73.6975 197° South 405 466 17,900 -950 Descending Boston Center
Sun 04:27:39 PM 42.9014 -73.7383 198° South 395 455 17,400 -900 Descending Boston Center
Sun 04:28:39 PM 42.7906 -73.7869 198° South 389 448 16,100 -700 Descending Boston Center
Sun 04:29:39 PM 42.6919 -73.8328 199° South 383 441 16,000 -50 Descending Boston Center
Sun 04:30:39 PM 42.5914 -73.8728 196° South 383 441 16,000  Level Boston Center
Sun 04:31:39 PM 42.5117 -73.9075 198° South 383 441 16,000  Level Boston Center
Sun 04:32:39 PM 42.3944 -73.9611 199° South 383 441 16,000  Level Boston Center
Sun 04:33:39 PM 42.3064 -74.0008 198° South 383 441 16,000  Level Boston Center
Sun 04:34:39 PM 42.1994 -74.0458 197° South 378 435 16,000  Level Boston Center
Sun 04:35:39 PM 42.1008 -74.0911 199° South 378 435 16,000  Level Boston Center
Sun 04:36:39 PM 42.0064 -74.1361 199° South 372 428 16,000 -100 Level Boston Center
Sun 04:37:39 PM 41.9161 -74.1725 197° South 367 422 15,800 -850 Descending Boston Center
Sun 04:38:39 PM 41.8111 -74.2200 199° South 367 422 14,300 -1,450 Descending Boston Center
Sun 04:39:39 PM 41.7231 -74.2564 197° South 367 422 12,900 -1,450 Descending Boston Center
Sun 04:40:39 PM 41.6222 -74.3008 198° South 361 415 11,400 -1,550 Descending Boston Center
Sun 04:41:39 PM 41.5508 -74.3347 200° South 332 382 9,800 -1,571 Descending Boston Center
Sun 04:43:27 PM 41.4167 -74.3833 195° South 264 304 7,000 -1,000 Descending New York TRACON
Sun 04:44:27 PM 41.3500 -74.4167 201° Southwest 245 282 7,000  Level New York TRACON
Sun 04:45:26 PM 41.2833 -74.4500 201° Southwest 247 284 7,000  Level New York TRACON
Sun 04:46:26 PM 41.2167 -74.4667 191° South 245 282 7,000 -500 Level New York TRACON
Sun 04:47:26 PM 41.1667 -74.4333 153° Southeast 230 265 6,000 -1,000 Descending New York TRACON
Sun 04:48:26 PM 41.1000 -74.3833 151° Southeast 225 259 5,000 -500 Descending New York TRACON
Sun 04:49:26 PM 41.0500 -74.3500 153° Southeast 226 260 5,000  Level New York TRACON
Sun 04:50:26 PM 41.0167 -74.4000 229° Southwest 236 272 5,000  Level New York TRACON
Sun 04:51:26 PM 41.0500 -74.4667 304° West 219 252 5,000  Level New York TRACON
Sun 04:52:26 PM 41.0667 -74.5500 285° West 226 260 5,000  Level New York TRACON
Sun 04:53:26 PM 41.0000 -74.5667 191° South 228 262 5,000  Level New York TRACON
Sun 04:54:26 PM 40.9333 -74.5667 180° South 237 273 5,000  Level New York TRACON
Sun 04:55:32 PM 40.8667 -74.5500 169° South 231 266 5,000 50 Level New York TRACON
Sun 04:56:27 PM 40.8167 -74.5500 180° South 222 255 5,100  Climbing New York TRACON
Sun 04:57:27 PM 40.7500 -74.5500 180° South 225 259 5,000 -50 Descending New York TRACON
Sun 04:58:26 PM 40.6833 -74.5500 180° South 228 262 5,000 50 Level New York TRACON
Sun 04:59:27 PM 40.6333 -74.5333 166° South 212 244 5,100  Climbing New York TRACON
Sun 05:00:27 PM 40.5667 -74.5167 169° South 197 227 5,000 -250 Descending New York TRACON
Sun 05:01:27 PM 40.5167 -74.5000 166° South 204 235 4,600 -500 Descending New York TRACON
Sun 05:02:27 PM 40.4667 -74.4667 153° Southeast 189 217 4,000 -288 Descending New York TRACON
Sun 05:03:32 PM 40.4500 -74.3833 105° East 186 214 4,000 -100 Level New York TRACON
Sun 05:04:27 PM 40.4667 -74.3333 66° East 177 204 3,800 -470 Descending New York TRACON
Sun 05:05:27 PM 40.5000 -74.2833 49° Northeast 184 212 3,100 -400 Descending New York TRACON
Sun 05:06:27 PM 40.5333 -74.2667 21° North 174 200 3,000 -400 Descending New York TRACON
Sun 05:07:27 PM 40.5833 -74.2333 27° Northeast 181 208 2,300 -700 Descending New York TRACON

Login

Don't have an account? Register now (free) for customized features, flight alerts, and more!